Time;durP1;ratioP1;P1;durP2;ratioP2;P2;SDS_P1;SDS_P2;PMS_P1;PMS_P2;Temp;Humidity;BMP_temperature;BMP_pressure;BME280_temperature;BME280_humidity;BME280_pressure;Samples;Min_cycle;Max_cycle;Signal;HPM_P1;HPM_P2
2022/08/24 00:01:37;;;;;;;;;5.00;5.00;;;;;;;;5123529;27;45282;-64
2022/08/24 00:04:02;;;;;;;;;6.00;4.67;;;;;;;;5123169;27;45415;-64
2022/08/24 00:06:28;;;;;;;;;5.67;4.67;;;;;;;;5114992;27;46192;-64
2022/08/24 00:08:54;;;;;;;;;6.00;6.00;;;;;;;;5110819;27;45522;-64
2022/08/24 00:11:20;;;;;;;;;7.00;6.33;;;;;;;;5116784;27;45162;-64
2022/08/24 00:13:45;;;;;;;;;5.67;5.67;;;;;;;;5113405;27;45235;-64
2022/08/24 00:16:11;;;;;;;;;6.00;6.00;;;;;;;;5119898;27;45637;-65
2022/08/24 00:18:36;;;;;;;;;4.67;4.67;;;;;;;;5119213;27;45226;-65
2022/08/24 00:21:02;;;;;;;;;3.33;3.33;;;;;;;;5122779;27;45199;-65
2022/08/24 00:23:27;;;;;;;;;6.00;6.00;;;;;;;;5111912;27;45350;-65
2022/08/24 00:25:53;;;;;;;;;4.33;4.33;;;;;;;;5121134;27;45382;-64
2022/08/24 00:28:18;;;;;;;;;5.33;5.33;;;;;;;;5112780;27;45504;-64
2022/08/24 00:30:43;;;;;;;;;5.33;5.33;;;;;;;;5121076;27;45376;-65
2022/08/24 00:33:09;;;;;;;;;6.00;6.00;;;;;;;;5114150;27;45313;-65
2022/08/24 00:35:35;;;;;;;;;5.33;5.33;;;;;;;;5121794;27;46886;-65
2022/08/24 00:38:00;;;;;;;;;9.00;7.00;;;;;;;;5113278;27;45388;-65
2022/08/24 00:40:28;;;;;;;;;6.67;5.00;;;;;;;;5122769;27;45546;-65
2022/08/24 00:42:54;;;;;;;;;9.00;8.00;;;;;;;;5116738;27;45467;-65
2022/08/24 00:45:19;;;;;;;;;7.00;7.00;;;;;;;;5119536;27;45246;-65
2022/08/24 00:47:57;;;;;;;;;6.33;6.33;;;;;;;;5117746;27;45299;-65
2022/08/24 00:50:28;;;;;;;;;4.00;4.00;;;;;;;;5122952;27;45311;-65
2022/08/24 00:52:56;;;;;;;;;5.67;5.33;;;;;;;;5118692;27;45490;-65
2022/08/24 00:55:31;;;;;;;;;5.33;5.33;;;;;;;;5121202;27;45961;-65
2022/08/24 00:58:00;;;;;;;;;6.00;6.00;;;;;;;;5113077;27;45509;-64
2022/08/24 01:00:28;;;;;;;;;4.00;4.00;;;;;;;;5115309;27;45371;-65
2022/08/24 01:02:57;;;;;;;;;4.33;4.00;;;;;;;;5112729;27;45324;-64
2022/08/24 01:05:23;;;;;;;;;3.33;3.33;;;;;;;;5107988;27;46094;-64
2022/08/24 01:07:49;;;;;;;;;6.33;6.00;;;;;;;;5113322;27;45220;-64
2022/08/24 01:10:18;;;;;;;;;5.33;4.67;;;;;;;;5119483;27;45430;-65
2022/08/24 01:12:46;;;;;;;;;5.33;5.00;;;;;;;;5110465;27;45368;-65
2022/08/24 01:15:11;;;;;;;;;6.00;6.00;;;;;;;;5111244;27;47660;-64
2022/08/24 01:20:22;;;;;;;;;6.00;5.00;;;;;;;;5115753;27;45503;-64
2022/08/24 01:22:53;;;;;;;;;6.33;6.00;;;;;;;;5117824;27;45287;-65
2022/08/24 01:25:20;;;;;;;;;7.00;5.00;;;;;;;;5119525;27;45305;-65
2022/08/24 01:27:46;;;;;;;;;5.67;4.67;;;;;;;;5120570;27;45230;-64
2022/08/24 01:30:13;;;;;;;;;4.00;4.00;;;;;;;;5119199;27;45454;-65
2022/08/24 01:32:39;;;;;;;;;6.00;6.00;;;;;;;;5108430;27;45295;-65
2022/08/24 01:35:04;;;;;;;;;4.67;4.67;;;;;;;;5115694;27;45340;-65
2022/08/24 01:37:31;;;;;;;;;4.33;4.33;;;;;;;;5110940;27;45545;-65
2022/08/24 01:39:57;;;;;;;;;5.00;5.00;;;;;;;;5116421;27;45457;-65
2022/08/24 01:42:22;;;;;;;;;5.00;5.00;;;;;;;;5113308;27;45474;-65
2022/08/24 01:44:47;;;;;;;;;5.00;5.00;;;;;;;;5120026;27;46900;-64
2022/08/24 01:47:14;;;;;;;;;7.00;4.00;;;;;;;;5116048;27;48118;-64
2022/08/24 01:49:42;;;;;;;;;4.33;4.33;;;;;;;;5117642;27;45299;-64
2022/08/24 01:52:08;;;;;;;;;5.33;5.33;;;;;;;;5118930;27;45404;-64
2022/08/24 01:54:33;;;;;;;;;7.00;5.67;;;;;;;;5119950;27;46379;-65
2022/08/24 01:56:59;;;;;;;;;5.67;5.67;;;;;;;;5121091;27;45447;-65
2022/08/24 01:59:25;;;;;;;;;6.00;6.00;;;;;;;;5119126;27;45326;-64
2022/08/24 02:01:52;;;;;;;;;5.67;5.67;;;;;;;;5120010;27;45470;-64
2022/08/24 02:04:18;;;;;;;;;5.00;5.00;;;;;;;;5118387;27;46612;-65
2022/08/24 02:06:43;;;;;;;;;6.00;5.67;;;;;;;;5107693;27;45304;-65
2022/08/24 02:09:09;;;;;;;;;5.00;4.00;;;;;;;;5119115;27;45352;-64
2022/08/24 02:11:35;;;;;;;;;5.00;5.00;;;;;;;;5111421;27;45263;-64
2022/08/24 02:14:00;;;;;;;;;6.00;6.00;;;;;;;;5118574;27;45496;-65
2022/08/24 02:16:26;;;;;;;;;6.00;5.33;;;;;;;;5115362;27;45255;-65
2022/08/24 02:18:51;;;;;;;;;5.33;4.00;;;;;;;;5116349;27;45209;-65
2022/08/24 02:21:16;;;;;;;;;6.33;5.00;;;;;;;;5120789;27;45209;-65
2022/08/24 02:23:42;;;;;;;;;6.00;4.67;;;;;;;;5113936;27;46263;-64
2022/08/24 02:26:08;;;;;;;;;6.00;6.00;;;;;;;;5126303;27;45335;-64
2022/08/24 02:28:34;;;;;;;;;8.00;5.00;;;;;;;;5123507;27;45348;-64
2022/08/24 02:31:00;;;;;;;;;4.67;4.67;;;;;;;;5116262;27;45463;-64
2022/08/24 02:33:25;;;;;;;;;5.67;5.00;;;;;;;;5111879;27;47357;-64
2022/08/24 02:35:50;;;;;;;;;6.00;6.00;;;;;;;;5125375;27;45708;-64
2022/08/24 02:38:16;;;;;;;;;5.00;5.00;;;;;;;;5120662;27;45413;-65
2022/08/24 02:40:42;;;;;;;;;6.33;6.00;;;;;;;;5122064;27;45351;-64
2022/08/24 02:43:07;;;;;;;;;6.00;6.00;;;;;;;;5111281;27;47022;-64
2022/08/24 02:45:36;;;;;;;;;4.67;4.33;;;;;;;;5123891;27;45309;-65
2022/08/24 02:48:02;;;;;;;;;5.00;5.00;;;;;;;;5121781;27;45545;-65
2022/08/24 02:50:27;;;;;;;;;4.00;4.00;;;;;;;;5123871;27;45759;-65
2022/08/24 02:52:53;;;;;;;;;8.00;6.00;;;;;;;;5117935;27;46513;-64
2022/08/24 02:55:18;;;;;;;;;5.00;5.00;;;;;;;;5118399;27;45465;-64
2022/08/24 02:57:43;;;;;;;;;6.67;5.00;;;;;;;;5121121;27;45300;-64
2022/08/24 03:00:11;;;;;;;;;9.67;7.00;;;;;;;;5125510;27;45367;-64
2022/08/24 03:02:36;;;;;;;;;8.33;6.00;;;;;;;;5123220;27;46346;-64
2022/08/24 03:05:02;;;;;;;;;5.67;5.33;;;;;;;;5119846;27;45364;-64
2022/08/24 03:07:27;;;;;;;;;5.67;5.67;;;;;;;;5109035;27;45379;-63
2022/08/24 03:09:52;;;;;;;;;6.00;6.00;;;;;;;;5119539;27;45621;-64
2022/08/24 03:12:17;;;;;;;;;6.00;6.00;;;;;;;;5109516;27;45498;-65
2022/08/24 03:14:43;;;;;;;;;6.00;6.00;;;;;;;;5121811;27;45557;-64
2022/08/24 03:17:08;;;;;;;;;7.00;7.00;;;;;;;;5110704;27;45218;-64
2022/08/24 03:19:34;;;;;;;;;5.33;5.33;;;;;;;;5121881;27;45609;-64
2022/08/24 03:21:59;;;;;;;;;4.00;4.00;;;;;;;;5120718;27;46446;-64
2022/08/24 03:24:24;;;;;;;;;7.00;6.67;;;;;;;;5118836;27;45403;-64
2022/08/24 03:26:50;;;;;;;;;9.00;6.33;;;;;;;;5119571;27;45528;-63
2022/08/24 03:29:15;;;;;;;;;9.33;6.67;;;;;;;;5119920;27;45327;-65
2022/08/24 03:31:40;;;;;;;;;8.67;6.33;;;;;;;;5123430;27;45348;-64
2022/08/24 03:34:05;;;;;;;;;6.67;5.33;;;;;;;;5117644;27;45303;-64
2022/08/24 03:36:30;;;;;;;;;6.67;6.67;;;;;;;;5125963;27;45318;-65
2022/08/24 03:38:56;;;;;;;;;7.00;7.00;;;;;;;;5118428;27;45360;-64
2022/08/24 03:41:21;;;;;;;;;6.67;6.67;;;;;;;;5123954;27;47119;-65
2022/08/24 03:43:49;;;;;;;;;10.00;9.00;;;;;;;;5114509;27;45355;-64
2022/08/24 03:46:17;;;;;;;;;9.67;9.33;;;;;;;;5114243;27;45401;-65
2022/08/24 03:48:43;;;;;;;;;8.00;7.00;;;;;;;;5117621;27;45980;-65
2022/08/24 03:51:13;;;;;;;;;9.33;8.00;;;;;;;;5114527;27;45323;-64
2022/08/24 03:53:39;;;;;;;;;10.67;7.00;;;;;;;;5114374;27;45423;-64
2022/08/24 03:56:05;;;;;;;;;6.67;6.67;;;;;;;;5119951;27;45346;-63
2022/08/24 03:58:30;;;;;;;;;9.33;9.00;;;;;;;;5123514;27;45471;-65
2022/08/24 04:00:55;;;;;;;;;8.67;7.00;;;;;;;;5120538;27;46444;-64
2022/08/24 04:03:20;;;;;;;;;7.33;7.00;;;;;;;;5121492;27;45405;-64
2022/08/24 04:05:46;;;;;;;;;8.00;7.33;;;;;;;;5118421;27;45249;-64
2022/08/24 04:08:12;;;;;;;;;9.00;9.00;;;;;;;;5121604;27;45264;-64
2022/08/24 04:10:42;;;;;;;;;8.33;7.00;;;;;;;;5117518;27;46969;-64
2022/08/24 04:13:07;;;;;;;;;7.00;7.00;;;;;;;;5112568;27;45414;-65
2022/08/24 04:15:37;;;;;;;;;10.33;10.00;;;;;;;;5108262;27;45328;-64
2022/08/24 04:18:02;;;;;;;;;7.67;7.67;;;;;;;;5109191;27;45302;-65
2022/08/24 04:20:28;;;;;;;;;7.00;7.00;;;;;;;;5114810;27;46697;-64
2022/08/24 04:22:53;;;;;;;;;8.00;8.00;;;;;;;;5118372;27;45477;-65
2022/08/24 04:25:18;;;;;;;;;8.67;7.67;;;;;;;;5113531;27;45410;-64
2022/08/24 04:27:43;;;;;;;;;6.67;6.67;;;;;;;;5115854;27;45398;-64
2022/08/24 04:30:09;;;;;;;;;7.67;7.67;;;;;;;;5115016;27;47033;-65
2022/08/24 04:32:34;;;;;;;;;10.33;7.33;;;;;;;;5117824;27;45307;-64
2022/08/24 04:34:59;;;;;;;;;9.33;8.00;;;;;;;;5117303;27;45291;-64
2022/08/24 04:37:25;;;;;;;;;7.33;7.33;;;;;;;;5117950;27;45225;-64
2022/08/24 04:39:51;;;;;;;;;8.67;8.67;;;;;;;;5124386;27;45411;-64
2022/08/24 04:42:16;;;;;;;;;8.33;7.33;;;;;;;;5119553;27;45471;-64
2022/08/24 04:44:42;;;;;;;;;9.00;9.00;;;;;;;;5119391;27;45371;-64
2022/08/24 04:47:07;;;;;;;;;8.33;6.67;;;;;;;;5121649;27;45245;-64
2022/08/24 04:49:32;;;;;;;;;7.00;6.67;;;;;;;;5112995;27;45460;-65
2022/08/24 04:51:58;;;;;;;;;12.00;9.67;;;;;;;;5115112;27;45244;-64
2022/08/24 04:54:24;;;;;;;;;11.33;8.00;;;;;;;;5118531;27;45146;-64
2022/08/24 04:56:49;;;;;;;;;10.00;9.00;;;;;;;;5118230;27;46147;-65
2022/08/24 04:59:14;;;;;;;;;8.67;7.33;;;;;;;;5116473;27;45650;-64
2022/08/24 05:01:40;;;;;;;;;8.00;7.00;;;;;;;;5119469;27;45438;-66
2022/08/24 05:04:06;;;;;;;;;6.33;6.00;;;;;;;;5120142;27;45421;-64
2022/08/24 05:06:31;;;;;;;;;8.00;7.67;;;;;;;;5121005;27;45334;-65
2022/08/24 05:08:57;;;;;;;;;7.00;7.00;;;;;;;;5115474;27;45983;-64
2022/08/24 05:11:23;;;;;;;;;7.33;7.33;;;;;;;;5122258;27;45295;-64
2022/08/24 05:13:50;;;;;;;;;7.00;7.00;;;;;;;;5113538;27;45357;-64
2022/08/24 05:16:19;;;;;;;;;8.00;8.00;;;;;;;;5119061;27;45181;-64
2022/08/24 05:18:44;;;;;;;;;8.67;8.67;;;;;;;;5109364;27;45460;-64
2022/08/24 05:21:11;;;;;;;;;10.00;9.33;;;;;;;;5119720;27;45973;-64
2022/08/24 05:23:37;;;;;;;;;8.67;8.67;;;;;;;;5109973;27;45436;-64
2022/08/24 05:26:10;;;;;;;;;11.33;9.00;;;;;;;;5115465;27;45759;-64
2022/08/24 05:28:35;;;;;;;;;9.00;7.67;;;;;;;;5109668;27;47053;-65
2022/08/24 05:31:06;;;;;;;;;8.00;8.00;;;;;;;;5117622;27;45404;-64
2022/08/24 05:33:32;;;;;;;;;9.00;7.33;;;;;;;;5111639;27;45279;-64
2022/08/24 05:35:57;;;;;;;;;7.33;7.33;;;;;;;;5119985;27;45406;-64
2022/08/24 05:38:22;;;;;;;;;7.67;7.67;;;;;;;;5113301;27;46603;-64
2022/08/24 05:40:47;;;;;;;;;7.67;7.67;;;;;;;;5120743;27;45500;-65
2022/08/24 05:43:13;;;;;;;;;7.33;7.33;;;;;;;;5116206;27;45335;-64
2022/08/24 05:45:40;;;;;;;;;11.00;10.00;;;;;;;;5119269;27;45315;-64
2022/08/24 05:48:05;;;;;;;;;9.33;9.33;;;;;;;;5121157;27;45694;-64
2022/08/24 05:50:30;;;;;;;;;5.00;4.00;;;;;;;;5123055;27;45433;-64
2022/08/24 05:52:55;;;;;;;;;12.00;8.33;;;;;;;;5113525;27;45221;-64
2022/08/24 05:55:20;;;;;;;;;7.00;7.00;;;;;;;;5123092;27;45236;-65
2022/08/24 05:57:46;;;;;;;;;11.33;8.33;;;;;;;;5117361;27;46573;-64
2022/08/24 06:00:11;;;;;;;;;7.33;7.00;;;;;;;;5120247;27;45466;-64
2022/08/24 06:02:37;;;;;;;;;9.00;9.00;;;;;;;;5119256;27;45260;-64
2022/08/24 06:05:02;;;;;;;;;8.00;8.00;;;;;;;;5114998;27;45552;-64
2022/08/24 06:07:27;;;;;;;;;10.33;10.00;;;;;;;;5109441;27;45580;-64
2022/08/24 06:09:53;;;;;;;;;8.00;8.00;;;;;;;;5110193;27;45447;-64
2022/08/24 06:12:18;;;;;;;;;12.33;8.67;;;;;;;;5105279;27;45260;-64
2022/08/24 06:14:46;;;;;;;;;15.33;10.00;;;;;;;;5113890;27;45523;-65
2022/08/24 06:17:12;;;;;;;;;8.67;8.67;;;;;;;;5107662;27;46605;-64
2022/08/24 06:19:37;;;;;;;;;8.33;8.00;;;;;;;;5116424;27;45312;-64
2022/08/24 06:22:02;;;;;;;;;7.67;6.33;;;;;;;;5121969;27;45446;-64
2022/08/24 06:27:22;;;;;;;;;8.33;6.33;;;;;;;;5113617;27;45236;-64
2022/08/24 06:29:51;;;;;;;;;7.33;7.33;;;;;;;;5120058;27;45390;-64
2022/08/24 06:32:17;;;;;;;;;13.00;13.00;;;;;;;;5117950;27;45265;-64
2022/08/24 06:34:42;;;;;;;;;10.67;8.33;;;;;;;;5117652;27;45311;-63
2022/08/24 06:37:07;;;;;;;;;6.00;6.00;;;;;;;;5120707;27;45387;-64
2022/08/24 06:39:33;;;;;;;;;9.00;6.33;;;;;;;;5106867;27;45434;-64
2022/08/24 06:41:58;;;;;;;;;8.00;8.00;;;;;;;;5105730;27;45287;-63
2022/08/24 06:44:24;;;;;;;;;6.33;6.33;;;;;;;;5107623;27;45398;-64
2022/08/24 06:46:51;;;;;;;;;10.33;8.00;;;;;;;;5110031;27;45578;-64
2022/08/24 06:49:16;;;;;;;;;8.33;7.33;;;;;;;;5107977;27;45434;-66
2022/08/24 06:51:41;;;;;;;;;9.33;9.33;;;;;;;;5114087;27;45528;-64
2022/08/24 06:54:07;;;;;;;;;9.67;9.67;;;;;;;;5119058;27;45370;-64
2022/08/24 06:56:32;;;;;;;;;11.00;10.33;;;;;;;;5119759;27;46776;-64
2022/08/24 06:58:59;;;;;;;;;10.33;9.00;;;;;;;;5122767;27;45592;-64
2022/08/24 07:01:25;;;;;;;;;9.00;8.00;;;;;;;;5123036;27;45553;-64
2022/08/24 07:03:50;;;;;;;;;10.00;8.33;;;;;;;;5117101;27;45315;-65
2022/08/24 07:06:17;;;;;;;;;13.00;10.00;;;;;;;;5115852;27;46133;-65
2022/08/24 07:08:43;;;;;;;;;10.67;9.00;;;;;;;;5118773;27;45509;-65
2022/08/24 07:11:09;;;;;;;;;8.00;7.00;;;;;;;;5110941;27;45439;-65
2022/08/24 07:13:34;;;;;;;;;15.33;12.00;;;;;;;;5128152;27;45440;-65
2022/08/24 07:16:00;;;;;;;;;11.00;9.00;;;;;;;;5124620;27;45442;-65
2022/08/24 07:18:25;;;;;;;;;10.00;10.00;;;;;;;;5118843;27;45238;-65
2022/08/24 07:20:50;;;;;;;;;13.33;10.33;;;;;;;;5114798;27;45408;-65
2022/08/24 07:23:16;;;;;;;;;9.00;8.33;;;;;;;;5112343;27;46030;-64
2022/08/24 07:25:42;;;;;;;;;8.00;8.00;;;;;;;;5119630;27;46202;-65
2022/08/24 07:28:08;;;;;;;;;9.00;8.00;;;;;;;;5119906;27;45396;-65
2022/08/24 07:30:33;;;;;;;;;7.00;7.00;;;;;;;;5121249;27;45428;-65
2022/08/24 07:32:58;;;;;;;;;11.67;9.33;;;;;;;;5121318;27;45209;-65
2022/08/24 07:35:25;;;;;;;;;9.33;9.33;;;;;;;;5122603;27;45428;-65
2022/08/24 07:37:50;;;;;;;;;12.67;9.33;;;;;;;;5121805;27;45435;-65
2022/08/24 07:40:16;;;;;;;;;12.00;10.33;;;;;;;;5111633;27;45552;-65
2022/08/24 07:42:42;;;;;;;;;11.67;10.33;;;;;;;;5109977;27;46092;-65
2022/08/24 07:45:07;;;;;;;;;10.00;10.00;;;;;;;;5114012;27;45571;-64
2022/08/24 07:47:33;;;;;;;;;9.33;8.33;;;;;;;;5110136;27;45248;-64
2022/08/24 07:49:58;;;;;;;;;11.67;11.00;;;;;;;;5116188;27;45381;-64
2022/08/24 07:52:23;;;;;;;;;10.67;10.67;;;;;;;;5113079;27;45256;-65
2022/08/24 07:54:49;;;;;;;;;11.00;11.00;;;;;;;;5117391;27;46280;-65
2022/08/24 07:57:14;;;;;;;;;11.00;8.00;;;;;;;;5116375;27;45180;-66
2022/08/24 07:59:40;;;;;;;;;10.67;9.67;;;;;;;;5118948;27;45134;-65
2022/08/24 08:02:07;;;;;;;;;8.00;8.00;;;;;;;;5124711;27;45488;-65
2022/08/24 08:04:32;;;;;;;;;10.00;8.00;;;;;;;;5113554;27;45428;-65
2022/08/24 08:06:59;;;;;;;;;6.33;6.33;;;;;;;;5124347;27;45288;-65
2022/08/24 08:09:25;;;;;;;;;8.67;8.67;;;;;;;;5115393;27;45337;-65
2022/08/24 08:11:51;;;;;;;;;11.00;11.00;;;;;;;;5116108;27;45497;-64
2022/08/24 08:14:16;;;;;;;;;11.00;10.67;;;;;;;;5111143;27;46062;-65
2022/08/24 08:16:41;;;;;;;;;11.00;8.33;;;;;;;;5117950;27;45309;-65
2022/08/24 08:19:06;;;;;;;;;11.67;9.33;;;;;;;;5112593;27;45572;-65
2022/08/24 08:24:16;;;;;;;;;7.00;7.00;;;;;;;;5117068;27;45458;-65
2022/08/24 08:26:46;;;;;;;;;7.67;7.67;;;;;;;;5110977;27;45377;-65
2022/08/24 08:29:12;;;;;;;;;10.33;8.33;;;;;;;;5121191;27;45406;-67
2022/08/24 08:31:38;;;;;;;;;10.33;10.33;;;;;;;;5115207;27;45509;-65
2022/08/24 08:34:03;;;;;;;;;6.00;6.00;;;;;;;;5119127;27;47174;-65
2022/08/24 08:36:29;;;;;;;;;10.67;6.67;;;;;;;;5116501;27;45178;-65
2022/08/24 08:38:54;;;;;;;;;7.67;7.67;;;;;;;;5116897;27;45420;-65
2022/08/24 08:41:40;;;;;;;;;7.00;7.00;;;;;;;;5123159;27;45583;-65
2022/08/24 08:44:12;;;;;;;;;7.00;6.33;;;;;;;;5119107;27;46197;-64
2022/08/24 08:46:56;;;;;;;;;7.33;5.67;;;;;;;;5105657;27;45461;-65
2022/08/24 08:49:50;;;;;;;;;8.33;6.67;;;;;;;;5116570;27;45401;-65
2022/08/24 08:52:23;;;;;;;;;8.00;7.00;;;;;;;;5097345;27;45359;-65
2022/08/24 08:55:00;;;;;;;;;6.00;6.00;;;;;;;;5113376;27;45961;-65
2022/08/24 08:57:32;;;;;;;;;8.00;6.67;;;;;;;;5108749;27;45430;-65
2022/08/24 09:00:23;;;;;;;;;6.33;5.00;;;;;;;;5114903;27;45412;-65
2022/08/24 09:02:48;;;;;;;;;6.33;4.67;;;;;;;;5111752;27;45424;-65
2022/08/24 09:05:39;;;;;;;;;7.00;7.00;;;;;;;;5114775;27;45681;-65
2022/08/24 09:08:16;;;;;;;;;3.00;2.00;;;;;;;;5120803;27;45165;-65
2022/08/24 09:10:44;;;;;;;;;2.33;2.33;;;;;;;;5115648;27;45390;-64
2022/08/24 09:13:28;;;;;;;;;4.00;2.00;;;;;;;;5118913;27;45410;-64
2022/08/24 09:16:06;;;;;;;;;7.67;6.00;;;;;;;;5116588;27;45400;-64
2022/08/24 09:18:43;;;;;;;;;3.00;3.00;;;;;;;;5109606;27;45327;-65
2022/08/24 09:21:27;;;;;;;;;2.00;2.00;;;;;;;;5120229;27;45258;-65
2022/08/24 09:23:52;;;;;;;;;3.00;3.00;;;;;;;;5113220;27;45547;-66
2022/08/24 09:26:38;;;;;;;;;3.00;3.00;;;;;;;;5113692;27;46478;-65
2022/08/24 09:29:12;;;;;;;;;4.00;4.00;;;;;;;;5118084;27;45325;-65
2022/08/24 09:31:56;;;;;;;;;1.33;1.33;;;;;;;;5112174;27;45358;-65
2022/08/24 09:34:24;;;;;;;;;2.33;2.00;;;;;;;;5115512;27;45317;-64
2022/08/24 09:36:56;;;;;;;;;5.00;3.00;;;;;;;;5115736;27;46437;-64
2022/08/24 09:39:47;;;;;;;;;4.67;2.67;;;;;;;;5117183;27;47558;-64
2022/08/24 09:42:31;;;;;;;;;3.00;2.00;;;;;;;;5091769;27;45280;-65
2022/08/24 09:45:15;;;;;;;;;3.00;2.00;;;;;;;;5116637;27;45312;-65
2022/08/24 09:47:40;;;;;;;;;0.67;0.67;;;;;;;;5106175;27;46106;-65
2022/08/24 09:50:24;;;;;;;;;1.00;1.00;;;;;;;;5119107;27;45486;-65
2022/08/24 09:53:07;;;;;;;;;2.00;2.00;;;;;;;;5106784;27;45566;-64
2022/08/24 09:55:32;;;;;;;;;3.00;2.00;;;;;;;;5116207;27;45631;-64
2022/08/24 09:57:57;;;;;;;;;4.00;4.00;;;;;;;;5112591;27;45420;-66
2022/08/24 10:00:26;;;;;;;;;2.00;2.00;;;;;;;;5111706;27;45371;-64
2022/08/24 10:02:57;;;;;;;;;1.00;1.00;;;;;;;;5113631;27;45367;-66
2022/08/24 10:05:41;;;;;;;;;1.00;1.00;;;;;;;;5114043;27;45431;-64
2022/08/24 10:08:12;;;;;;;;;3.67;3.67;;;;;;;;5116325;27;47518;-63
2022/08/24 10:10:56;;;;;;;;;2.67;2.00;;;;;;;;5120330;27;45378;-65
2022/08/24 10:13:31;;;;;;;;;3.00;1.67;;;;;;;;5106619;27;45323;-63
2022/08/24 10:16:00;;;;;;;;;1.00;1.00;;;;;;;;5121096;27;45623;-64
2022/08/24 10:18:38;;;;;;;;;1.00;1.00;;;;;;;;5104327;27;46990;-63
2022/08/24 10:21:04;;;;;;;;;2.00;2.00;;;;;;;;5119879;27;45439;-64
2022/08/24 10:23:47;;;;;;;;;3.33;3.33;;;;;;;;5110896;27;45560;-66
2022/08/24 10:26:13;;;;;;;;;1.67;1.67;;;;;;;;5110592;27;45366;-64
2022/08/24 10:28:47;;;;;;;;;2.67;2.33;;;;;;;;5116309;27;47146;-63
2022/08/24 10:31:50;;;;;;;;;3.00;3.00;;;;;;;;5120005;27;45308;-64
2022/08/24 10:34:26;;;;;;;;;1.33;1.33;;;;;;;;5057480;28;45297;-63
2022/08/24 10:37:10;;;;;;;;;1.67;1.67;;;;;;;;5063569;28;45362;-66
2022/08/24 10:40:02;;;;;;;;;2.33;2.33;;;;;;;;5096409;27;45374;-65
2022/08/24 10:45:11;;;;;;;;;2.00;2.00;;;;;;;;5117268;27;45267;-65
2022/08/24 10:47:43;;;;;;;;;2.33;2.33;;;;;;;;5108653;27;45174;-65
2022/08/24 10:50:27;;;;;;;;;1.00;1.00;;;;;;;;5118327;27;46662;-65
2022/08/24 10:53:11;;;;;;;;;2.00;2.00;;;;;;;;5107762;27;45484;-65
2022/08/24 10:55:36;;;;;;;;;1.00;1.00;;;;;;;;5119551;27;45384;-65
2022/08/24 10:58:20;;;;;;;;;4.33;4.33;;;;;;;;5116500;27;45475;-65
2022/08/24 11:00:45;;;;;;;;;3.33;2.00;;;;;;;;5120278;27;45356;-65
2022/08/24 11:03:12;;;;;;;;;3.33;3.33;;;;;;;;5119391;27;45371;-65
2022/08/24 11:05:41;;;;;;;;;7.00;6.00;;;;;;;;5114921;27;45461;-66
2022/08/24 11:08:06;;;;;;;;;0.67;0.67;;;;;;;;5123051;27;45700;-66
2022/08/24 11:10:37;;;;;;;;;1.67;1.00;;;;;;;;5121792;27;45337;-65
2022/08/24 11:13:19;;;;;;;;;1.00;1.00;;;;;;;;5106900;27;45574;-66
2022/08/24 11:15:50;;;;;;;;;2.00;2.00;;;;;;;;5120525;27;45528;-66
2022/08/24 11:18:16;;;;;;;;;3.00;3.00;;;;;;;;5112386;27;45518;-66
2022/08/24 11:20:45;;;;;;;;;4.33;1.00;;;;;;;;5121135;27;45869;-65
2022/08/24 11:23:24;;;;;;;;;1.67;1.67;;;;;;;;5113708;27;45343;-65
2022/08/24 11:25:58;;;;;;;;;1.00;0.67;;;;;;;;5122898;27;45338;-66
2022/08/24 11:28:43;;;;;;;;;0.67;0.67;;;;;;;;5119257;27;45503;-66
2022/08/24 11:31:18;;;;;;;;;6.00;3.00;;;;;;;;5114595;27;45341;-66
2022/08/24 11:33:45;;;;;;;;;1.67;1.67;;;;;;;;5117586;27;45412;-66
2022/08/24 11:36:15;;;;;;;;;2.00;2.00;;;;;;;;5122579;27;45456;-66
2022/08/24 11:38:40;;;;;;;;;5.67;4.00;;;;;;;;5116816;27;44880;-66
2022/08/24 11:41:18;;;;;;;;;1.33;1.33;;;;;;;;5121217;27;46317;-66
2022/08/24 11:43:59;;;;;;;;;2.33;2.33;;;;;;;;5119430;27;45713;-66
2022/08/24 11:46:53;;;;;;;;;2.00;2.00;;;;;;;;5109128;27;45392;-66
2022/08/24 11:49:37;;;;;;;;;2.33;2.00;;;;;;;;5105608;27;46222;-66
2022/08/24 11:52:18;;;;;;;;;1.00;1.00;;;;;;;;5123831;27;47401;-66
2022/08/24 11:54:48;;;;;;;;;1.67;1.67;;;;;;;;5121926;27;45405;-66
2022/08/24 11:57:20;;;;;;;;;2.00;2.00;;;;;;;;5107184;27;45293;-66
2022/08/24 11:59:52;;;;;;;;;3.00;2.00;;;;;;;;5114524;27;45412;-67
2022/08/24 12:02:20;;;;;;;;;2.00;2.00;;;;;;;;5121451;27;45465;-66
2022/08/24 12:05:01;;;;;;;;;1.00;1.00;;;;;;;;5116366;27;45349;-66
2022/08/24 12:07:35;;;;;;;;;2.00;2.00;;;;;;;;5122059;27;45429;-66
2022/08/24 12:10:12;;;;;;;;;1.33;0.00;;;;;;;;5115755;27;45308;-66
2022/08/24 12:12:56;;;;;;;;;4.33;3.33;;;;;;;;5110614;27;46142;-66
2022/08/24 12:15:40;;;;;;;;;1.33;1.00;;;;;;;;5121066;27;45269;-66
2022/08/24 12:18:24;;;;;;;;;1.00;1.00;;;;;;;;5112149;27;45295;-66
2022/08/24 12:20:49;;;;;;;;;1.00;1.00;;;;;;;;5122620;27;45696;-65
2022/08/24 12:23:18;;;;;;;;;0.67;0.67;;;;;;;;5113624;27;45463;-65
2022/08/24 12:26:03;;;;;;;;;2.00;2.00;;;;;;;;5114925;27;45366;-65
2022/08/24 12:28:49;;;;;;;;;2.00;0.67;;;;;;;;5120042;27;45354;-65
2022/08/24 12:31:33;;;;;;;;;2.00;2.00;;;;;;;;5115311;27;45387;-65
2022/08/24 12:34:01;;;;;;;;;1.33;1.33;;;;;;;;5116456;27;46510;-65
2022/08/24 12:36:40;;;;;;;;;1.67;1.67;;;;;;;;5121690;27;45103;-66
2022/08/24 12:39:13;;;;;;;;;2.00;0.67;;;;;;;;5109200;27;45544;-66
2022/08/24 12:42:01;;;;;;;;;1.00;1.00;;;;;;;;5122644;27;45292;-64
2022/08/24 12:44:33;;;;;;;;;1.33;1.33;;;;;;;;5117528;27;45450;-65
2022/08/24 12:46:58;;;;;;;;;0.67;0.67;;;;;;;;5107298;27;45408;-65
2022/08/24 12:49:31;;;;;;;;;1.00;1.00;;;;;;;;5116895;27;45295;-66
2022/08/24 12:51:59;;;;;;;;;0.67;0.67;;;;;;;;5111809;27;45245;-64
2022/08/24 12:54:25;;;;;;;;;1.67;1.67;;;;;;;;5109575;27;47737;-66
2022/08/24 12:57:08;;;;;;;;;1.67;1.67;;;;;;;;5115096;27;45348;-66
2022/08/24 12:59:39;;;;;;;;;1.67;1.67;;;;;;;;5112755;27;45380;-66
2022/08/24 13:02:06;;;;;;;;;0.67;0.67;;;;;;;;5118843;27;45245;-67
2022/08/24 13:04:32;;;;;;;;;3.00;0.67;;;;;;;;5116032;27;45654;-65
2022/08/24 13:07:09;;;;;;;;;2.25;0.50;;;;;;;;5121293;27;45252;-67
2022/08/24 13:09:37;;;;;;;;;0.67;0.67;;;;;;;;5114602;27;45441;-67
2022/08/24 13:12:21;;;;;;;;;1.00;1.00;;;;;;;;5123412;27;45513;-66
2022/08/24 13:14:49;;;;;;;;;0.67;0.67;;;;;;;;5116098;27;45368;-67
2022/08/24 13:17:17;;;;;;;;;1.67;1.67;;;;;;;;5111059;27;45419;-66
2022/08/24 13:19:44;;;;;;;;;1.33;0.33;;;;;;;;5113422;27;45450;-66
2022/08/24 13:22:09;;;;;;;;;0.33;0.33;;;;;;;;5113765;27;45397;-67
2022/08/24 13:24:34;;;;;;;;;3.00;2.00;;;;;;;;5114812;27;45505;-67
2022/08/24 13:27:11;;;;;;;;;0.67;0.67;;;;;;;;5115417;27;45508;-67
2022/08/24 13:29:55;;;;;;;;;1.33;1.33;;;;;;;;5116737;27;45247;-67
2022/08/24 13:32:42;;;;;;;;;1.67;1.67;;;;;;;;5116498;27;45570;-67
2022/08/24 13:35:26;;;;;;;;;1.33;1.33;;;;;;;;5116852;27;46667;-67
2022/08/24 13:38:10;;;;;;;;;1.67;1.67;;;;;;;;5116299;27;45239;-67
2022/08/24 13:40:45;;;;;;;;;1.67;1.67;;;;;;;;5119720;27;45471;-67
2022/08/24 13:43:37;;;;;;;;;1.33;1.33;;;;;;;;5116442;27;45423;-66
2022/08/24 13:46:16;;;;;;;;;2.00;2.00;;;;;;;;5115704;27;45362;-67
2022/08/24 13:49:00;;;;;;;;;1.33;1.33;;;;;;;;5114714;27;45410;-67
2022/08/24 13:51:36;;;;;;;;;0.67;0.67;;;;;;;;5117835;27;45386;-67
2022/08/24 13:54:01;;;;;;;;;2.33;2.33;;;;;;;;5113329;27;45518;-66
2022/08/24 13:56:37;;;;;;;;;0.00;0.00;;;;;;;;5111496;27;45299;-67
2022/08/24 13:59:33;;;;;;;;;1.67;0.67;;;;;;;;5112792;27;45388;-67
2022/08/24 14:02:14;;;;;;;;;3.00;3.00;;;;;;;;5115450;27;45433;-66
2022/08/24 14:04:50;;;;;;;;;0.33;0.33;;;;;;;;5118374;27;45423;-67
2022/08/24 14:07:20;;;;;;;;;0.67;0.67;;;;;;;;5118026;27;45503;-73
2022/08/24 14:10:06;;;;;;;;;1.00;1.00;;;;;;;;5117280;27;45390;-71
2022/08/24 14:12:31;;;;;;;;;0.00;0.00;;;;;;;;5102136;27;45830;-71
2022/08/24 14:15:15;;;;;;;;;2.00;1.67;;;;;;;;5114919;27;45499;-69
2022/08/24 14:17:52;;;;;;;;;1.67;1.67;;;;;;;;5122610;27;47148;-71
2022/08/24 14:20:27;;;;;;;;;1.00;1.00;;;;;;;;5115900;27;45424;-72
2022/08/24 14:23:09;;;;;;;;;1.00;1.00;;;;;;;;5108562;27;45548;-70
2022/08/24 14:25:34;;;;;;;;;2.67;2.00;;;;;;;;5122920;27;45398;-71
2022/08/24 14:28:00;;;;;;;;;1.50;1.00;;;;;;;;5119622;27;46957;-68
2022/08/24 14:30:25;;;;;;;;;0.00;0.00;;;;;;;;5111421;27;45471;-68
2022/08/24 14:32:59;;;;;;;;;0.00;0.00;;;;;;;;5112438;27;45584;-69
2022/08/24 14:35:45;;;;;;;;;1.67;0.00;;;;;;;;5114036;27;45703;-69
2022/08/24 14:38:21;;;;;;;;;1.67;1.00;;;;;;;;5109915;27;45521;-69
2022/08/24 14:40:59;;;;;;;;;0.00;0.00;;;;;;;;5123318;27;45436;-69
2022/08/24 14:43:29;;;;;;;;;0.00;0.00;;;;;;;;5119255;27;45523;-68
2022/08/24 14:46:20;;;;;;;;;3.75;3.75;;;;;;;;5116202;27;45288;-69
2022/08/24 14:48:50;;;;;;;;;0.33;0.33;;;;;;;;5112046;27;47375;-70
2022/08/24 14:51:34;;;;;;;;;0.75;0.75;;;;;;;;5115386;27;45617;-70
2022/08/24 14:54:24;;;;;;;;;0.67;0.67;;;;;;;;5117506;27;45471;-72
2022/08/24 14:57:05;;;;;;;;;0.00;0.00;;;;;;;;5125543;27;45402;-70
2022/08/24 14:59:39;;;;;;;;;0.00;0.00;;;;;;;;5116809;27;45464;-68
2022/08/24 15:02:30;;;;;;;;;1.00;0.00;;;;;;;;5120864;27;45569;-74
2022/08/24 15:05:08;;;;;;;;;0.67;0.67;;;;;;;;5117627;27;45560;-70
2022/08/24 15:07:35;;;;;;;;;0.00;0.00;;;;;;;;5120151;27;45250;-68
2022/08/24 15:10:01;;;;;;;;;0.00;0.00;;;;;;;;5119236;27;45349;-69